createdAt,value
2023-05-08T00:00:38.765Z,98956.22
2023-05-08T00:03:17.552Z,98954.16
2023-05-08T00:05:44.950Z,98958.44
2023-05-08T00:08:12.596Z,98965.19
2023-05-08T00:10:40.002Z,98961.09
2023-05-08T00:13:07.774Z,98962.72
2023-05-08T00:15:36.600Z,98967.53
2023-05-08T00:18:04.340Z,98961.41
2023-05-08T00:20:31.784Z,98966.84
2023-05-08T00:22:59.365Z,98968.63
2023-05-08T00:25:27.940Z,98961.09
2023-05-08T00:27:55.512Z,98966.16
2023-05-08T00:30:23.316Z,98965.13
2023-05-08T00:32:51.069Z,98968.44
2023-05-08T00:35:18.639Z,98957.06
2023-05-08T00:37:46.664Z,98967.44
2023-05-08T00:40:14.547Z,98968.75
2023-05-08T00:42:42.397Z,98964.38
2023-05-08T00:45:10.319Z,98968.56
2023-05-08T00:47:38.894Z,98966.88
2023-05-08T00:50:07.328Z,98969.47
2023-05-08T00:52:35.405Z,98967.13
2023-05-08T00:55:06.671Z,98976.28
2023-05-08T00:57:35.769Z,98964.38
2023-05-08T01:00:05.744Z,98965.19
2023-05-08T01:02:34.707Z,98966.28
2023-05-08T01:05:03.700Z,98968.75
2023-05-08T01:07:31.706Z,98972.31
2023-05-08T01:09:59.053Z,98974.59
2023-05-08T01:13:05.160Z,98961.22
2023-05-08T01:15:43.713Z,98976.63
2023-05-08T01:18:33.425Z,98974.53
2023-05-08T01:21:20.219Z,98969.72
2023-05-08T01:24:18.114Z,98976.03
2023-05-08T01:27:03.347Z,98981.94
2023-05-08T01:29:58.891Z,98981.69
2023-05-08T01:32:38.600Z,98976.41
2023-05-08T01:35:32.785Z,98988.25
2023-05-08T01:38:40.187Z,98984.66
2023-05-08T01:41:16.683Z,98983.19
2023-05-08T01:44:06.334Z,98993.50
2023-05-08T01:46:34.566Z,98993.22
2023-05-08T01:49:33.565Z,98996.88
2023-05-08T01:52:18.882Z,98989.03
2023-05-08T01:54:58.885Z,98988.38
2023-05-08T01:57:31.412Z,98997.03
2023-05-08T02:00:03.701Z,98988.47
2023-05-08T02:02:33.332Z,98984.81
2023-05-08T02:05:06.037Z,98981.19
2023-05-08T02:07:38.336Z,98974.41
2023-05-08T02:10:08.239Z,98975.13
2023-05-08T02:12:38.274Z,98975.31
2023-05-08T02:15:09.424Z,98986.81
2023-05-08T02:17:40.839Z,98988.63
2023-05-08T02:20:15.015Z,98987.53
2023-05-08T02:22:50.951Z,99001.84
2023-05-08T02:25:19.718Z,98997.88
2023-05-08T02:27:53.344Z,99000.63
2023-05-08T02:30:24.764Z,98999.81
2023-05-08T02:32:54.575Z,98989.88
2023-05-08T02:35:24.665Z,98984.22
2023-05-08T02:37:57.494Z,98993.50
2023-05-08T02:40:29.351Z,98994.59
2023-05-08T02:42:57.356Z,98999.88
2023-05-08T02:45:32.747Z,98987.97
2023-05-08T02:48:20.112Z,98997.88
2023-05-08T02:51:03.136Z,98995.19
2023-05-08T02:53:40.938Z,98996.97
2023-05-08T02:56:18.908Z,99003.75
2023-05-08T02:59:00.069Z,98994.13
2023-05-08T03:01:45.004Z,99002.06
2023-05-08T03:04:24.563Z,99002.97
2023-05-08T03:06:56.953Z,99006.59
2023-05-08T03:09:38.502Z,99006.47
2023-05-08T03:12:16.292Z,98999.84
2023-05-08T03:15:00.882Z,99009.34
2023-05-08T03:17:32.655Z,99009.13
2023-05-08T03:20:07.244Z,99008.00
2023-05-08T03:22:38.847Z,99017.72
2023-05-08T03:25:10.727Z,99016.13
2023-05-08T03:27:40.153Z,99016.38
2023-05-08T03:30:09.803Z,99012.78
2023-05-08T03:32:39.365Z,99020.13
2023-05-08T03:35:09.434Z,99019.72
2023-05-08T03:37:37.649Z,99017.34
2023-05-08T03:40:08.527Z,99020.59
2023-05-08T03:42:37.860Z,99018.06
2023-05-08T03:45:09.833Z,99022.09
2023-05-08T03:47:38.300Z,99017.13
2023-05-08T03:50:08.785Z,99014.94
2023-05-08T03:52:36.352Z,99017.81
2023-05-08T03:55:04.581Z,99022.81
2023-05-08T03:57:43.799Z,99028.00
2023-05-08T04:00:29.053Z,99028.41
2023-05-08T04:03:26.377Z,99025.88
2023-05-08T04:06:21.820Z,99027.16
2023-05-08T04:09:03.348Z,99017.56
2023-05-08T04:11:41.516Z,99023.69
2023-05-08T04:14:16.471Z,99025.31
2023-05-08T04:16:51.793Z,99028.81
2023-05-08T04:19:27.904Z,99028.81
2023-05-08T04:22:01.612Z,99042.78
2023-05-08T04:24:32.128Z,99039.66
2023-05-08T04:27:02.713Z,99039.91
2023-05-08T04:29:31.242Z,99040.66
2023-05-08T04:32:01.535Z,99048.13
2023-05-08T04:34:29.580Z,99054.88
2023-05-08T04:36:57.756Z,99057.84
2023-05-08T04:39:25.126Z,99055.78
2023-05-08T04:41:55.263Z,99069.72
2023-05-08T04:44:22.520Z,99071.72
2023-05-08T04:46:50.353Z,99069.03
2023-05-08T04:49:17.689Z,99070.63
2023-05-08T04:51:45.237Z,99078.66
2023-05-08T04:54:12.436Z,99080.28
2023-05-08T04:56:40.035Z,99078.53
2023-05-08T04:59:07.493Z,99080.38
2023-05-08T05:01:35.138Z,99082.97
2023-05-08T05:04:02.509Z,99084.78
2023-05-08T05:06:30.190Z,99088.69
2023-05-08T05:08:57.523Z,99092.47
2023-05-08T05:11:25.110Z,99099.69
2023-05-08T05:13:52.377Z,99093.34
2023-05-08T05:16:19.971Z,99105.91
2023-05-08T05:18:47.557Z,99096.09
2023-05-08T05:21:15.255Z,99103.25
2023-05-08T05:23:42.534Z,99113.66
2023-05-08T05:26:10.222Z,99116.25
2023-05-08T05:28:37.688Z,99111.78
2023-05-08T05:31:05.528Z,99113.00
2023-05-08T05:33:32.901Z,99112.16
2023-05-08T05:36:00.682Z,99120.91
2023-05-08T05:38:28.007Z,99120.59
2023-05-08T05:40:55.532Z,99126.66
2023-05-08T05:43:22.848Z,99130.44
2023-05-08T05:45:50.588Z,99126.22
2023-05-08T05:48:17.862Z,99136.03
2023-05-08T05:50:45.357Z,99132.59
2023-05-08T05:53:13.111Z,99131.09
2023-05-08T05:55:41.340Z,99137.78
2023-05-08T05:58:08.843Z,99144.78
2023-05-08T06:00:36.766Z,99142.44
2023-05-08T06:03:05.758Z,99153.78
2023-05-08T06:05:33.389Z,99151.59
2023-05-08T06:08:00.695Z,99167.41
2023-05-08T06:10:28.598Z,99161.88
2023-05-08T06:12:55.786Z,99163.31
2023-05-08T06:15:23.514Z,99163.03
2023-05-08T06:17:50.890Z,99164.19
2023-05-08T06:20:18.740Z,99164.94
2023-05-08T06:22:46.050Z,99164.56
2023-05-08T06:25:13.897Z,99172.34
2023-05-08T06:27:41.394Z,99166.25
2023-05-08T06:30:10.836Z,99183.59
2023-05-08T06:32:38.388Z,99179.22
2023-05-08T06:35:06.805Z,99178.81
2023-05-08T06:37:34.068Z,99171.75
2023-05-08T06:40:11.684Z,99174.50
2023-05-08T06:42:40.838Z,99178.69
2023-05-08T06:45:09.821Z,99175.97
2023-05-08T06:47:37.761Z,99186.16
2023-05-08T06:50:06.418Z,99183.03
2023-05-08T06:52:33.740Z,99186.53
2023-05-08T06:55:01.306Z,99190.09
2023-05-08T06:57:30.347Z,99188.44
2023-05-08T06:59:57.906Z,99188.69
2023-05-08T07:02:25.155Z,99188.06
2023-05-08T07:04:53.008Z,99193.25
2023-05-08T07:07:20.354Z,99202.06
2023-05-08T07:09:47.985Z,99201.38
2023-05-08T07:12:16.835Z,99205.75
2023-05-08T07:14:44.399Z,99215.22
2023-05-08T07:17:11.680Z,99211.66
2023-05-08T07:19:39.426Z,99214.28
2023-05-08T07:22:06.840Z,99201.69
2023-05-08T07:24:34.555Z,99211.50
2023-05-08T07:27:02.234Z,99217.81
2023-05-08T07:29:29.812Z,99210.75
2023-05-08T07:31:57.086Z,99218.50
2023-05-08T07:34:24.721Z,99217.19
2023-05-08T07:36:52.081Z,99219.59
2023-05-08T07:39:19.671Z,99222.72
2023-05-08T07:41:49.628Z,99210.56
2023-05-08T07:44:17.575Z,99216.72
2023-05-08T07:46:44.880Z,99210.91
2023-05-08T07:49:12.486Z,99221.59
2023-05-08T07:51:40.344Z,99216.19
2023-05-08T07:54:08.097Z,99215.84
2023-05-08T07:56:35.603Z,99216.69
2023-05-08T07:59:03.224Z,99216.69
2023-05-08T08:01:30.544Z,99218.66
2023-05-08T08:03:58.319Z,99223.00
2023-05-08T08:06:25.741Z,99221.22
2023-05-08T08:08:53.472Z,99224.69
2023-05-08T08:11:20.929Z,99205.50
2023-05-08T08:13:48.546Z,99227.41
2023-05-08T08:16:15.904Z,99214.81
2023-05-08T08:18:43.522Z,99218.91
2023-05-08T08:21:11.115Z,99220.00
2023-05-08T08:23:38.479Z,99215.19
2023-05-08T08:26:06.656Z,99218.41
2023-05-08T08:28:33.955Z,99226.56
2023-05-08T08:31:01.677Z,99224.75
2023-05-08T08:33:29.890Z,99225.06
2023-05-08T08:35:57.584Z,99225.84
2023-05-08T08:38:24.939Z,99235.88
2023-05-08T08:40:53.566Z,99230.59
2023-05-08T08:43:21.081Z,99229.91
2023-05-08T08:45:48.831Z,99231.47
2023-05-08T08:48:18.108Z,99226.09
2023-05-08T08:50:53.190Z,99233.28
2023-05-08T08:53:34.651Z,99228.00
2023-05-08T08:56:06.580Z,99228.94
2023-05-08T08:58:55.102Z,99235.53
2023-05-08T09:01:26.164Z,99237.66
2023-05-08T09:03:53.828Z,99240.91
2023-05-08T09:06:21.756Z,99241.78
2023-05-08T09:08:50.371Z,99240.38
2023-05-08T09:11:18.003Z,99244.97
2023-05-08T09:13:45.928Z,99243.97
2023-05-08T09:16:13.680Z,99250.56
2023-05-08T09:18:41.266Z,99249.19
2023-05-08T09:21:09.938Z,99244.34
2023-05-08T09:23:37.836Z,99229.41
2023-05-08T09:26:05.505Z,99217.06
2023-05-08T09:28:32.876Z,99230.13
2023-05-08T09:31:01.741Z,99234.63
2023-05-08T09:33:30.250Z,99225.91
2023-05-08T09:35:58.378Z,99230.72
2023-05-08T09:38:40.138Z,99229.03
2023-05-08T09:41:16.790Z,99240.16
2023-05-08T09:44:00.050Z,99244.47
2023-05-08T09:46:28.301Z,99235.78
2023-05-08T09:48:58.802Z,99230.28
2023-05-08T09:51:30.513Z,99225.00
2023-05-08T09:54:00.528Z,99221.28
2023-05-08T09:56:40.049Z,99234.03
2023-05-08T09:59:30.420Z,99229.44
2023-05-08T10:01:58.912Z,99230.41
2023-05-08T10:04:37.471Z,99224.19
2023-05-08T10:07:05.434Z,99230.06
2023-05-08T10:09:47.115Z,99226.88
2023-05-08T10:12:18.921Z,99216.09
2023-05-08T10:14:46.915Z,99216.69
2023-05-08T10:17:25.396Z,99226.50
2023-05-08T10:20:00.319Z,99225.41
2023-05-08T10:22:29.783Z,99222.94
2023-05-08T10:25:01.002Z,99213.34
2023-05-08T10:27:45.285Z,99210.94
2023-05-08T10:30:17.375Z,99223.81
2023-05-08T10:32:52.896Z,99228.78
2023-05-08T10:35:20.735Z,99226.28
2023-05-08T10:37:49.807Z,99222.84
2023-05-08T10:40:21.822Z,99222.78
2023-05-08T10:42:50.874Z,99203.53
2023-05-08T10:45:18.958Z,99213.41
2023-05-08T10:48:08.829Z,99201.09
2023-05-08T10:51:01.236Z,99191.13
2023-05-08T10:53:54.344Z,99201.69
2023-05-08T10:56:29.320Z,99208.06
2023-05-08T10:58:59.028Z,99198.34
2023-05-08T11:01:27.390Z,99196.81
2023-05-08T11:03:56.155Z,99201.81
2023-05-08T11:06:49.273Z,99206.72
2023-05-08T11:09:43.184Z,99206.03
2023-05-08T11:12:31.700Z,99203.63
2023-05-08T11:15:06.710Z,99205.28
2023-05-08T11:17:34.902Z,99207.09
2023-05-08T11:20:07.040Z,99198.31
2023-05-08T11:22:37.052Z,99198.50
2023-05-08T11:25:10.882Z,99211.69
2023-05-08T11:28:00.947Z,99213.56
2023-05-08T11:30:38.726Z,99204.88
2023-05-08T11:33:06.787Z,99206.19
2023-05-08T11:36:06.745Z,99194.78
2023-05-08T11:38:38.684Z,99191.97
2023-05-08T11:41:22.083Z,99188.09
2023-05-08T11:44:22.947Z,99188.88
2023-05-08T11:46:53.754Z,99195.78
2023-05-08T11:49:28.902Z,99190.53
2023-05-08T11:52:00.051Z,99204.09
2023-05-08T11:54:31.943Z,99177.84
2023-05-08T11:56:59.916Z,99182.88
2023-05-08T11:59:27.463Z,99197.31
2023-05-08T12:04:26.976Z,99189.94
2023-05-08T12:07:01.030Z,99183.63
2023-05-08T12:09:28.429Z,99195.31
2023-05-08T12:11:59.298Z,99181.75
2023-05-08T12:14:26.977Z,99188.88
2023-05-08T12:16:54.884Z,99184.28
2023-05-08T12:19:22.269Z,99176.81
2023-05-08T12:21:50.169Z,99184.34
2023-05-08T12:24:24.506Z,99181.25
2023-05-08T12:26:56.363Z,99184.75
2023-05-08T12:29:24.318Z,99177.22
2023-05-08T12:31:53.872Z,99186.56
2023-05-08T12:34:21.853Z,99179.50
2023-05-08T12:36:51.420Z,99176.81
2023-05-08T12:39:19.173Z,99187.53
2023-05-08T12:41:52.149Z,99184.50
2023-05-08T12:44:26.683Z,99184.25
2023-05-08T12:46:57.254Z,99195.41
2023-05-08T12:49:32.746Z,99170.34
2023-05-08T12:52:13.054Z,99178.38
2023-05-08T12:54:48.523Z,99174.03
2023-05-08T12:57:18.593Z,99173.59
2023-05-08T12:59:46.961Z,99165.09
2023-05-08T13:02:19.385Z,99163.53
2023-05-08T13:04:47.298Z,99162.31
2023-05-08T13:07:14.771Z,99163.72
2023-05-08T13:10:04.899Z,99164.25
2023-05-08T13:12:32.752Z,99158.41
2023-05-08T13:15:01.083Z,99156.81
2023-05-08T13:17:28.485Z,99161.59
2023-05-08T13:19:56.107Z,99164.72
2023-05-08T13:22:26.781Z,99152.47
2023-05-08T13:24:54.500Z,99154.06
2023-05-08T13:27:22.054Z,99173.06
2023-05-08T13:29:49.746Z,99164.72
2023-05-08T13:32:17.280Z,99159.25
2023-05-08T13:34:50.407Z,99173.00
2023-05-08T13:37:18.979Z,99158.28
2023-05-08T13:39:46.772Z,99169.31
2023-05-08T13:42:13.972Z,99162.72
2023-05-08T13:44:41.575Z,99156.03
2023-05-08T13:47:10.115Z,99149.28
2023-05-08T13:49:37.822Z,99165.72
2023-05-08T13:52:05.723Z,99161.97
2023-05-08T13:54:33.373Z,99149.81
2023-05-08T13:57:02.776Z,99155.81
2023-05-08T13:59:31.528Z,99151.75
2023-05-08T14:01:58.975Z,99143.63
2023-05-08T14:04:26.711Z,99152.00
2023-05-08T14:06:54.100Z,99160.28
2023-05-08T14:09:21.910Z,99148.47
2023-05-08T14:11:49.475Z,99145.66
2023-05-08T14:14:17.149Z,99140.63
2023-05-08T14:16:44.584Z,99140.50
2023-05-08T14:19:12.247Z,99148.81
2023-05-08T14:21:40.689Z,99145.66
2023-05-08T14:24:09.104Z,99149.63
2023-05-08T14:26:36.466Z,99149.63
2023-05-08T14:29:05.419Z,99144.09
2023-05-08T14:31:32.855Z,99148.44
2023-05-08T14:34:00.520Z,99148.47
2023-05-08T14:36:27.995Z,99151.22
2023-05-08T14:38:55.662Z,99156.94
2023-05-08T14:41:23.277Z,99153.44
2023-05-08T14:43:50.886Z,99172.03
2023-05-08T14:46:18.399Z,99160.88
2023-05-08T14:48:46.446Z,99153.94
2023-05-08T14:51:14.388Z,99161.75
2023-05-08T14:53:42.274Z,99157.81
2023-05-08T14:56:09.861Z,99154.84
2023-05-08T14:58:37.720Z,99154.19
2023-05-08T15:01:05.534Z,99156.34
2023-05-08T15:03:33.464Z,99152.34
2023-05-08T15:06:01.289Z,99154.56
2023-05-08T15:08:28.982Z,99148.06
2023-05-08T15:10:56.236Z,99157.09
2023-05-08T15:13:23.922Z,99152.06
2023-05-08T15:15:51.509Z,99150.28
2023-05-08T15:18:19.322Z,99151.03
2023-05-08T15:20:46.639Z,99152.28
2023-05-08T15:23:14.287Z,99153.56
2023-05-08T15:25:41.692Z,99155.00
2023-05-08T15:28:09.285Z,99157.56
2023-05-08T15:30:36.561Z,99169.13
2023-05-08T15:33:04.285Z,99150.31
2023-05-08T15:35:31.681Z,99156.94
2023-05-08T15:38:04.679Z,99151.19
2023-05-08T15:40:32.708Z,99150.81
2023-05-08T15:43:01.159Z,99154.88
2023-05-08T15:45:28.582Z,99152.13
2023-05-08T15:47:56.473Z,99154.56
2023-05-08T15:50:24.082Z,99150.63
2023-05-08T15:52:52.032Z,99140.09
2023-05-08T15:55:20.364Z,99140.59
2023-05-08T15:57:48.856Z,99138.38
2023-05-08T16:00:16.736Z,99140.59
2023-05-08T16:02:44.930Z,99143.44
2023-05-08T16:05:12.679Z,99141.44
2023-05-08T16:07:40.474Z,99149.84
2023-05-08T16:10:08.944Z,99134.28
2023-05-08T16:12:36.643Z,99127.13
2023-05-08T16:15:04.456Z,99131.84
2023-05-08T16:17:33.611Z,99141.22
2023-05-08T16:20:01.839Z,99134.91
2023-05-08T16:22:30.954Z,99131.28
2023-05-08T16:24:58.792Z,99132.47
2023-05-08T16:27:27.908Z,99129.78
2023-05-08T16:29:55.487Z,99139.13
2023-05-08T16:32:23.547Z,99132.88
2023-05-08T16:34:51.264Z,99135.28
2023-05-08T16:37:19.031Z,99136.47
2023-05-08T16:39:46.449Z,99136.88
2023-05-08T16:42:14.105Z,99131.47
2023-05-08T16:44:42.060Z,99132.03
2023-05-08T16:47:10.854Z,99135.78
2023-05-08T16:49:38.636Z,99136.19
2023-05-08T16:52:06.804Z,99138.84
2023-05-08T16:54:34.195Z,99141.72
2023-05-08T16:57:02.202Z,99137.72
2023-05-08T16:59:30.119Z,99138.16
2023-05-08T17:01:58.116Z,99143.00
2023-05-08T17:04:26.173Z,99144.78
2023-05-08T17:06:54.216Z,99142.66
2023-05-08T17:09:21.689Z,99135.56
2023-05-08T17:11:49.369Z,99132.22
2023-05-08T17:14:22.825Z,99141.09
2023-05-08T17:16:50.431Z,99141.44
2023-05-08T17:19:17.728Z,99143.78
2023-05-08T17:21:45.469Z,99141.81
2023-05-08T17:24:12.799Z,99149.00
2023-05-08T17:26:40.608Z,99152.00
2023-05-08T17:29:08.085Z,99145.22
2023-05-08T17:31:35.685Z,99156.34
2023-05-08T17:34:09.930Z,99148.94
2023-05-08T17:36:37.476Z,99143.91
2023-05-08T17:39:05.052Z,99140.19
2023-05-08T17:41:32.633Z,99142.66
2023-05-08T17:43:59.890Z,99139.06
2023-05-08T17:46:27.606Z,99139.31
2023-05-08T17:48:54.897Z,99131.84
2023-05-08T17:51:22.516Z,99128.19
2023-05-08T17:53:49.830Z,99136.41
2023-05-08T17:56:20.624Z,99137.53
2023-05-08T17:58:48.015Z,99137.72
2023-05-08T18:01:15.928Z,99144.25
2023-05-08T18:03:45.087Z,99145.47
2023-05-08T18:06:17.947Z,99146.38
2023-05-08T18:08:46.780Z,99148.66
2023-05-08T18:11:26.225Z,99150.41
2023-05-08T18:13:54.781Z,99153.06
2023-05-08T18:16:23.171Z,99151.72
2023-05-08T18:18:50.951Z,99167.19
2023-05-08T18:21:18.736Z,99159.50
2023-05-08T18:23:46.176Z,99162.13
2023-05-08T18:26:15.896Z,99154.50
2023-05-08T18:28:47.119Z,99155.03
2023-05-08T18:31:16.499Z,99156.38
2023-05-08T18:33:44.041Z,99157.72
2023-05-08T18:36:16.687Z,99163.13
2023-05-08T18:38:44.087Z,99164.13
2023-05-08T18:41:11.729Z,99159.41
2023-05-08T18:43:39.180Z,99169.78
2023-05-08T18:46:14.375Z,99171.63
2023-05-08T18:48:43.744Z,99169.31
2023-05-08T18:51:11.484Z,99173.94
2023-05-08T18:53:39.450Z,99176.41
2023-05-08T18:56:07.314Z,99170.25
2023-05-08T18:58:34.577Z,99172.69
2023-05-08T19:01:02.319Z,99170.78
2023-05-08T19:03:29.693Z,99171.50
2023-05-08T19:05:57.669Z,99172.88
2023-05-08T19:08:25.281Z,99172.34
2023-05-08T19:10:53.418Z,99177.53
2023-05-08T19:13:20.773Z,99173.97
2023-05-08T19:15:48.460Z,99173.31
2023-05-08T19:18:15.839Z,99168.16
2023-05-08T19:20:43.413Z,99164.84
2023-05-08T19:23:10.751Z,99161.19
2023-05-08T19:25:38.436Z,99163.38
2023-05-08T19:28:05.855Z,99157.75
2023-05-08T19:30:33.390Z,99166.06
2023-05-08T19:33:00.660Z,99164.38
2023-05-08T19:35:28.281Z,99159.47
2023-05-08T19:37:55.732Z,99164.53
2023-05-08T19:40:23.284Z,99164.84
2023-05-08T19:42:50.715Z,99164.28
2023-05-08T19:45:18.353Z,99169.50
2023-05-08T19:47:51.925Z,99159.50
2023-05-08T19:50:19.840Z,99158.34
2023-05-08T19:52:48.806Z,99157.59
2023-05-08T19:55:19.709Z,99155.94
2023-05-08T19:57:47.026Z,99153.56
2023-05-08T20:00:15.088Z,99150.13
2023-05-08T20:02:42.748Z,99157.41
2023-05-08T20:07:40.870Z,99148.31
2023-05-08T20:10:09.163Z,99146.72
2023-05-08T20:12:36.835Z,99151.50
2023-05-08T20:15:04.963Z,99144.41
2023-05-08T20:17:32.481Z,99142.00
2023-05-08T20:20:00.277Z,99138.63
2023-05-08T20:22:27.668Z,99137.09
2023-05-08T20:24:55.388Z,99135.41
2023-05-08T20:27:22.841Z,99140.13
2023-05-08T20:29:50.611Z,99130.91
2023-05-08T20:32:19.256Z,99136.03
2023-05-08T20:34:47.112Z,99132.78
2023-05-08T20:37:16.121Z,99134.84
2023-05-08T20:39:45.134Z,99135.97
2023-05-08T20:42:12.778Z,99141.34
2023-05-08T20:44:40.577Z,99135.69
2023-05-08T20:47:07.913Z,99135.06
2023-05-08T20:49:35.596Z,99129.22
2023-05-08T20:52:03.123Z,99134.84
2023-05-08T20:54:39.603Z,99127.81
2023-05-08T20:57:06.836Z,99124.53
2023-05-08T20:59:34.401Z,99128.91
2023-05-08T21:02:01.790Z,99127.91
2023-05-08T21:04:29.707Z,99129.19
2023-05-08T21:06:57.867Z,99127.81
2023-05-08T21:09:25.660Z,99131.34
2023-05-08T21:11:52.956Z,99121.78
2023-05-08T21:14:29.619Z,99120.94
2023-05-08T21:16:56.998Z,99120.16
2023-05-08T21:19:24.701Z,99122.97
2023-05-08T21:21:52.054Z,99118.03
2023-05-08T21:24:19.608Z,99125.00
2023-05-08T21:26:46.832Z,99121.75
2023-05-08T21:29:14.431Z,99124.34
2023-05-08T21:31:42.124Z,99122.59
2023-05-08T21:34:09.748Z,99123.50
2023-05-08T21:36:37.023Z,99114.16
2023-05-08T21:39:04.891Z,99111.81
2023-05-08T21:41:33.148Z,99113.38
2023-05-08T21:44:00.833Z,99115.25
2023-05-08T21:46:28.219Z,99101.47
2023-05-08T21:48:55.887Z,99107.59
2023-05-08T21:51:23.220Z,99102.63
2023-05-08T21:53:51.813Z,99105.81
2023-05-08T21:56:19.187Z,99106.53
2023-05-08T21:58:46.853Z,99101.31
2023-05-08T22:01:14.085Z,99100.41
2023-05-08T22:03:44.102Z,99108.72
2023-05-08T22:06:11.472Z,99107.19
2023-05-08T22:08:39.056Z,99104.72
2023-05-08T22:11:06.302Z,99106.44
2023-05-08T22:13:33.904Z,99098.19
2023-05-08T22:16:01.182Z,99103.47
2023-05-08T22:18:28.806Z,99099.47
2023-05-08T22:20:56.599Z,99094.56
2023-05-08T22:23:24.221Z,99094.56
2023-05-08T22:25:52.100Z,99090.69
2023-05-08T22:28:19.795Z,99087.72
2023-05-08T22:30:47.051Z,99086.34
2023-05-08T22:33:14.629Z,99085.75
2023-05-08T22:35:41.891Z,99082.81
2023-05-08T22:38:09.491Z,99082.81
2023-05-08T22:40:36.873Z,99086.78
2023-05-08T22:43:04.662Z,99085.91
2023-05-08T22:45:32.928Z,99075.56
2023-05-08T22:48:01.036Z,99072.19
2023-05-08T22:50:28.660Z,99075.81
2023-05-08T22:52:56.200Z,99083.69
2023-05-08T22:55:23.534Z,99080.41
2023-05-08T22:57:51.271Z,99081.31
2023-05-08T23:00:18.905Z,99077.81
2023-05-08T23:02:46.613Z,99078.59
2023-05-08T23:05:14.785Z,99082.22
2023-05-08T23:07:42.644Z,99079.56
2023-05-08T23:10:10.762Z,99076.72
2023-05-08T23:12:38.329Z,99071.69
2023-05-08T23:15:06.605Z,99078.84
2023-05-08T23:17:34.411Z,99069.78
2023-05-08T23:20:01.879Z,99072.19
2023-05-08T23:22:29.603Z,99070.16
2023-05-08T23:24:56.990Z,99060.84
2023-05-08T23:27:25.825Z,99067.09
2023-05-08T23:29:53.156Z,99066.31
2023-05-08T23:32:20.833Z,99068.31
2023-05-08T23:34:48.128Z,99067.72
2023-05-08T23:37:15.718Z,99063.53
2023-05-08T23:39:43.046Z,99055.16
2023-05-08T23:42:10.686Z,99055.19
2023-05-08T23:44:37.993Z,99053.78
2023-05-08T23:47:05.686Z,99053.06
2023-05-08T23:49:33.060Z,99054.84
2023-05-08T23:52:00.696Z,99048.22
2023-05-08T23:54:27.941Z,99049.16
2023-05-08T23:56:56.566Z,99047.59
2023-05-08T23:59:23.812Z,99043.44
